createdAt,value
2022-12-22T00:01:12.605Z,6.60
2022-12-22T00:03:58.357Z,6.60
2022-12-22T00:06:43.952Z,6.60
2022-12-22T00:09:29.375Z,6.60
2022-12-22T00:12:16.163Z,6.60
2022-12-22T00:15:03.856Z,6.60
2022-12-22T00:17:49.332Z,6.60
2022-12-22T00:20:37.211Z,6.60
2022-12-22T00:23:23.125Z,6.60
2022-12-22T00:26:08.590Z,6.60
2022-12-22T00:28:56.283Z,6.70
2022-12-22T00:31:41.815Z,6.60
2022-12-22T00:34:33.064Z,6.60
2022-12-22T00:37:18.353Z,6.60
2022-12-22T00:40:04.071Z,6.60
2022-12-22T00:42:49.804Z,6.60
2022-12-22T00:45:36.646Z,6.60
2022-12-22T00:48:23.002Z,6.60
2022-12-22T00:51:08.527Z,6.60
2022-12-22T00:53:54.206Z,6.60
2022-12-22T00:56:39.779Z,6.60
2022-12-22T00:59:25.231Z,6.60
2022-12-22T01:02:12.325Z,6.60
2022-12-22T01:04:57.581Z,6.60
2022-12-22T01:07:44.500Z,6.70
2022-12-22T01:10:31.910Z,6.70
2022-12-22T01:13:17.394Z,6.70
2022-12-22T01:16:02.881Z,6.70
2022-12-22T01:18:49.488Z,6.70
2022-12-22T01:21:36.779Z,6.70
2022-12-22T01:24:28.621Z,6.70
2022-12-22T01:27:14.115Z,6.70
2022-12-22T01:30:01.191Z,6.70
2022-12-22T01:32:47.011Z,6.70
2022-12-22T01:35:38.586Z,6.70
2022-12-22T01:38:24.150Z,6.70
2022-12-22T01:41:11.087Z,6.70
2022-12-22T01:43:56.568Z,6.70
2022-12-22T01:46:44.411Z,6.70
2022-12-22T01:49:33.202Z,6.70
2022-12-22T01:52:20.440Z,6.70
2022-12-22T01:55:07.065Z,6.70
2022-12-22T01:57:53.217Z,6.70
2022-12-22T02:00:38.440Z,6.70
2022-12-22T02:03:33.894Z,6.70
2022-12-22T02:06:30.799Z,6.70
2022-12-22T02:09:32.940Z,6.70
2022-12-22T02:12:28.964Z,6.70
2022-12-22T02:15:20.467Z,6.70
2022-12-22T02:18:15.843Z,6.70
2022-12-22T02:21:04.016Z,6.70
2022-12-22T02:24:28.871Z,6.70
2022-12-22T02:27:17.671Z,6.70
2022-12-22T02:30:08.652Z,6.70
2022-12-22T02:32:56.864Z,6.70
2022-12-22T02:35:42.368Z,6.70
2022-12-22T02:38:35.823Z,6.70
2022-12-22T02:41:32.882Z,6.70
2022-12-22T02:44:33.743Z,6.70
2022-12-22T02:47:24.889Z,6.70
2022-12-22T02:50:13.439Z,6.70
2022-12-22T02:53:01.309Z,6.70
2022-12-22T02:55:47.662Z,6.70
2022-12-22T02:58:33.740Z,6.70
2022-12-22T03:01:23.071Z,6.70
2022-12-22T03:04:08.817Z,6.70
2022-12-22T03:06:54.373Z,6.70
2022-12-22T03:09:39.847Z,6.80
2022-12-22T03:12:25.296Z,6.70
2022-12-22T03:15:10.843Z,6.70
2022-12-22T03:17:57.594Z,6.70
2022-12-22T03:20:43.102Z,6.80
2022-12-22T03:23:28.611Z,6.80
2022-12-22T03:25:56.428Z,6.80
2022-12-22T03:28:26.396Z,6.80
2022-12-22T03:30:56.247Z,6.80
2022-12-22T03:33:25.711Z,6.80
2022-12-22T03:35:53.735Z,6.80
2022-12-22T03:38:21.717Z,6.80
2022-12-22T03:40:49.729Z,6.80
2022-12-22T03:43:35.857Z,6.70
2022-12-22T03:46:23.677Z,6.80
2022-12-22T03:49:06.937Z,6.80
2022-12-22T03:51:35.412Z,6.80
2022-12-22T03:54:03.272Z,6.80
2022-12-22T03:56:31.382Z,6.80
2022-12-22T03:58:59.311Z,6.80
2022-12-22T04:01:27.307Z,6.80
2022-12-22T04:03:57.020Z,6.80
2022-12-22T04:06:24.861Z,6.80
2022-12-22T04:08:52.831Z,6.80
2022-12-22T04:11:38.277Z,6.80
2022-12-22T04:14:06.117Z,6.80
2022-12-22T04:16:34.579Z,6.80
2022-12-22T04:19:03.994Z,6.80
2022-12-22T04:21:31.831Z,6.80
2022-12-22T04:23:59.642Z,6.80
2022-12-22T04:26:28.046Z,6.80
2022-12-22T04:28:56.403Z,6.90
2022-12-22T04:31:24.977Z,6.90
2022-12-22T04:33:52.995Z,6.90
2022-12-22T04:36:22.239Z,6.90
2022-12-22T04:38:50.072Z,6.90
2022-12-22T04:41:17.979Z,6.90
2022-12-22T04:43:45.830Z,6.90
2022-12-22T04:46:13.754Z,6.90
2022-12-22T04:48:41.715Z,6.90
2022-12-22T04:51:09.820Z,6.90
2022-12-22T04:53:38.989Z,6.90
2022-12-22T04:56:08.701Z,6.90
2022-12-22T04:58:36.762Z,6.90
2022-12-22T05:01:12.325Z,6.90
2022-12-22T05:03:40.547Z,6.90
2022-12-22T05:06:08.852Z,6.90
2022-12-22T05:08:38.415Z,6.90
2022-12-22T05:11:06.880Z,6.90
2022-12-22T05:13:35.026Z,6.90
2022-12-22T05:16:08.096Z,6.90
2022-12-22T05:18:37.015Z,6.90
2022-12-22T05:21:07.323Z,6.90
2022-12-22T05:23:35.300Z,6.90
2022-12-22T05:26:05.019Z,6.90
2022-12-22T05:28:32.945Z,6.90
2022-12-22T05:31:05.906Z,6.90
2022-12-22T05:33:34.296Z,6.90
2022-12-22T05:36:05.790Z,6.90
2022-12-22T05:38:34.025Z,6.90
2022-12-22T05:41:04.648Z,6.90
2022-12-22T05:43:34.928Z,6.90
2022-12-22T05:46:04.718Z,6.90
2022-12-22T05:48:38.143Z,6.90
2022-12-22T05:51:08.245Z,6.90
2022-12-22T05:53:36.235Z,6.90
2022-12-22T05:56:04.742Z,6.90
2022-12-22T05:58:34.067Z,6.90
2022-12-22T06:01:02.318Z,6.90
2022-12-22T06:03:30.976Z,6.90
2022-12-22T06:05:59.576Z,6.90
2022-12-22T06:08:28.393Z,6.90
2022-12-22T06:10:57.266Z,6.90
2022-12-22T06:13:26.514Z,6.90
2022-12-22T06:15:56.029Z,6.90
2022-12-22T06:18:24.064Z,6.90
2022-12-22T06:20:53.617Z,6.90
2022-12-22T06:23:21.833Z,6.90
2022-12-22T06:25:55.984Z,6.90
2022-12-22T06:28:24.255Z,6.90
2022-12-22T06:30:52.383Z,6.90
2022-12-22T06:33:22.002Z,6.90
2022-12-22T06:35:57.509Z,6.90
2022-12-22T06:38:26.634Z,6.90
2022-12-22T06:40:54.943Z,6.90
2022-12-22T06:43:21.842Z,6.90
2022-12-22T06:45:49.831Z,6.90
2022-12-22T06:48:17.883Z,6.90
2022-12-22T06:50:47.667Z,6.90
2022-12-22T06:53:15.794Z,6.90
2022-12-22T06:55:44.063Z,6.90
2022-12-22T06:58:12.012Z,6.90
2022-12-22T07:00:40.147Z,7.00
2022-12-22T07:03:08.790Z,7.00
2022-12-22T07:05:36.968Z,7.00
2022-12-22T07:08:09.072Z,6.90
2022-12-22T07:10:55.544Z,7.00
2022-12-22T07:13:24.188Z,6.90
2022-12-22T07:16:00.004Z,6.90
2022-12-22T07:18:32.270Z,7.00
2022-12-22T07:21:01.120Z,7.00
2022-12-22T07:23:31.056Z,7.00
2022-12-22T07:25:59.183Z,7.00
2022-12-22T07:28:27.511Z,7.00
2022-12-22T07:30:56.301Z,7.00
2022-12-22T07:33:24.876Z,7.00
2022-12-22T07:36:03.993Z,7.00
2022-12-22T07:38:35.333Z,7.00
2022-12-22T07:41:05.429Z,7.00
2022-12-22T07:43:33.034Z,7.00
2022-12-22T07:46:01.290Z,7.00
2022-12-22T07:48:46.928Z,7.00
2022-12-22T07:51:14.864Z,7.10
2022-12-22T07:53:44.252Z,7.00
2022-12-22T07:56:12.339Z,7.00
2022-12-22T07:58:40.213Z,7.00
2022-12-22T08:01:08.130Z,7.00
2022-12-22T08:03:36.139Z,7.00
2022-12-22T08:06:05.898Z,7.00
2022-12-22T08:08:35.006Z,7.00
2022-12-22T08:11:04.513Z,7.00
2022-12-22T08:13:32.682Z,7.00
2022-12-22T08:16:05.041Z,7.00
2022-12-22T08:18:35.418Z,7.00
2022-12-22T08:21:04.511Z,7.00
2022-12-22T08:23:32.573Z,7.00
2022-12-22T08:26:05.825Z,7.00
2022-12-22T08:28:38.158Z,7.00
2022-12-22T08:31:06.750Z,7.00
2022-12-22T08:33:34.805Z,7.00
2022-12-22T08:36:08.046Z,7.10
2022-12-22T08:38:37.787Z,7.00
2022-12-22T08:41:06.218Z,7.10
2022-12-22T08:43:35.584Z,7.10
2022-12-22T08:46:03.615Z,7.10
2022-12-22T08:48:31.734Z,7.10
2022-12-22T08:51:00.536Z,7.10
2022-12-22T08:56:16.260Z,7.10
2022-12-22T08:58:45.563Z,7.10
2022-12-22T09:01:17.988Z,7.10
2022-12-22T09:03:50.054Z,7.10
2022-12-22T09:06:18.421Z,7.10
2022-12-22T09:08:48.793Z,7.10
2022-12-22T09:11:17.171Z,7.10
2022-12-22T09:13:47.849Z,7.10
2022-12-22T09:16:15.820Z,7.10
2022-12-22T09:18:43.681Z,7.10
2022-12-22T09:21:11.581Z,7.10
2022-12-22T09:23:41.783Z,7.10
2022-12-22T09:26:11.069Z,7.10
2022-12-22T09:28:45.156Z,7.20
2022-12-22T09:31:19.596Z,7.20
2022-12-22T09:33:47.675Z,7.20
2022-12-22T09:36:18.100Z,7.20
2022-12-22T09:38:46.220Z,7.20
2022-12-22T09:41:19.140Z,7.20
2022-12-22T09:43:47.248Z,7.20
2022-12-22T09:46:22.355Z,7.20
2022-12-22T09:48:51.112Z,7.20
2022-12-22T09:51:26.135Z,7.20
2022-12-22T09:53:59.284Z,7.20
2022-12-22T09:56:28.813Z,7.20
2022-12-22T09:58:59.960Z,7.20
2022-12-22T10:01:43.284Z,7.20
2022-12-22T10:04:18.040Z,7.20
2022-12-22T10:06:52.207Z,7.20
2022-12-22T10:09:52.362Z,7.20
2022-12-22T10:12:15.779Z,7.20
2022-12-22T10:14:45.780Z,7.20
2022-12-22T10:17:20.183Z,7.20
2022-12-22T10:19:49.757Z,7.20
2022-12-22T10:22:29.500Z,7.20
2022-12-22T10:24:58.075Z,7.20
2022-12-22T10:27:30.520Z,7.30
2022-12-22T10:30:20.608Z,7.30
2022-12-22T10:33:08.134Z,7.30
2022-12-22T10:35:49.220Z,7.20
2022-12-22T10:38:22.291Z,7.30
2022-12-22T10:40:58.385Z,7.20
2022-12-22T10:43:32.725Z,7.30
2022-12-22T10:46:01.887Z,7.30
2022-12-22T10:48:33.660Z,7.30
2022-12-22T10:51:02.983Z,7.30
2022-12-22T10:53:46.671Z,7.30
2022-12-22T10:56:24.601Z,7.30
2022-12-22T10:58:54.896Z,7.30
2022-12-22T11:01:28.945Z,7.30
2022-12-22T11:03:59.333Z,7.30
2022-12-22T11:06:27.367Z,7.30
2022-12-22T11:09:05.619Z,7.30
2022-12-22T11:11:49.246Z,7.30
2022-12-22T11:14:29.551Z,7.30
2022-12-22T11:17:02.893Z,7.30
2022-12-22T11:19:47.617Z,7.30
2022-12-22T11:22:35.536Z,7.30
2022-12-22T11:25:19.628Z,7.40
2022-12-22T11:28:01.993Z,7.30
2022-12-22T11:30:42.328Z,7.40
2022-12-22T11:33:30.515Z,7.30
2022-12-22T11:36:04.942Z,7.40
2022-12-22T11:38:48.554Z,7.40
2022-12-22T11:41:42.506Z,7.40
2022-12-22T11:44:31.669Z,7.40
2022-12-22T11:47:04.333Z,7.40
2022-12-22T11:50:52.561Z,7.40
2022-12-22T11:53:02.151Z,7.40
2022-12-22T11:55:32.269Z,7.40
2022-12-22T11:58:16.817Z,7.40
2022-12-22T12:04:05.661Z,7.40
2022-12-22T12:07:01.000Z,7.40
2022-12-22T12:09:45.299Z,7.40
2022-12-22T12:12:19.056Z,7.40
2022-12-22T12:14:55.861Z,7.40
2022-12-22T12:20:25.589Z,7.50
2022-12-22T12:23:09.503Z,7.40
2022-12-22T12:25:45.160Z,7.50
2022-12-22T12:28:25.033Z,7.50
2022-12-22T12:30:55.897Z,7.50
2022-12-22T12:33:36.250Z,7.50
2022-12-22T12:36:12.837Z,7.50
2022-12-22T12:39:07.594Z,7.50
2022-12-22T12:41:48.041Z,7.50
2022-12-22T12:44:20.927Z,7.50
2022-12-22T12:47:09.144Z,7.50
2022-12-22T12:50:25.006Z,7.50
2022-12-22T12:53:13.831Z,7.50
2022-12-22T12:55:59.758Z,7.50
2022-12-22T12:59:03.419Z,7.60
2022-12-22T13:01:58.433Z,7.60
2022-12-22T13:05:10.514Z,7.70
2022-12-22T13:08:14.387Z,7.90
2022-12-22T13:10:45.696Z,8.10
2022-12-22T13:13:34.621Z,8.10
2022-12-22T13:16:32.443Z,8.20
2022-12-22T13:19:05.494Z,8.20
2022-12-22T13:21:52.807Z,8.30
2022-12-22T13:24:29.804Z,8.30
2022-12-22T13:27:03.984Z,8.40
2022-12-22T13:29:43.437Z,8.40
2022-12-22T13:32:26.505Z,8.40
2022-12-22T13:35:30.309Z,8.30
2022-12-22T13:37:53.815Z,8.30
2022-12-22T13:40:24.642Z,8.30
2022-12-22T13:42:56.057Z,8.20
2022-12-22T13:45:38.385Z,8.20
2022-12-22T13:48:13.358Z,8.20
2022-12-22T13:50:46.139Z,8.10
2022-12-22T13:53:42.097Z,8.10
2022-12-22T13:56:09.457Z,8.10
2022-12-22T13:58:38.943Z,8.10
2022-12-22T14:01:17.339Z,8.10
2022-12-22T14:04:02.740Z,8.10
2022-12-22T14:06:33.849Z,8.10
2022-12-22T14:09:12.652Z,8.10
2022-12-22T14:11:47.045Z,8.10
2022-12-22T14:14:21.938Z,8.10
2022-12-22T14:16:52.129Z,8.10
2022-12-22T14:19:22.117Z,8.00
2022-12-22T14:22:01.251Z,8.00
2022-12-22T14:24:37.727Z,8.00
2022-12-22T14:27:07.091Z,8.00
2022-12-22T14:29:35.161Z,8.00
2022-12-22T14:32:03.840Z,8.00
2022-12-22T14:34:33.152Z,8.00
2022-12-22T14:37:03.745Z,8.00
2022-12-22T14:39:33.450Z,8.00
2022-12-22T14:42:04.150Z,8.00
2022-12-22T14:44:35.343Z,8.00
2022-12-22T14:47:07.954Z,8.00
2022-12-22T14:49:44.201Z,8.00
2022-12-22T14:52:22.929Z,8.00
2022-12-22T14:54:53.143Z,8.00
2022-12-22T14:57:32.408Z,8.00
2022-12-22T15:00:03.618Z,8.00
2022-12-22T15:02:39.720Z,8.00
2022-12-22T15:05:10.336Z,8.00
2022-12-22T15:08:05.258Z,8.00
2022-12-22T15:10:40.707Z,8.00
2022-12-22T15:13:14.151Z,7.90
2022-12-22T15:15:42.200Z,8.00
2022-12-22T15:18:14.981Z,8.00
2022-12-22T15:20:43.408Z,7.90
2022-12-22T15:23:16.959Z,7.90
2022-12-22T15:25:45.423Z,8.00
2022-12-22T15:28:13.411Z,7.90
2022-12-22T15:30:41.995Z,7.90
2022-12-22T15:33:14.126Z,7.90
2022-12-22T15:35:42.836Z,7.90
2022-12-22T15:38:15.590Z,7.90
2022-12-22T15:40:43.677Z,7.90
2022-12-22T15:43:28.938Z,7.90
2022-12-22T15:46:00.263Z,7.90
2022-12-22T15:48:31.021Z,7.80
2022-12-22T15:50:59.813Z,7.90
2022-12-22T15:53:29.484Z,7.80
2022-12-22T15:55:58.483Z,7.80
2022-12-22T15:58:29.026Z,7.80
2022-12-22T16:00:57.166Z,7.80
2022-12-22T16:03:25.382Z,7.80
2022-12-22T16:05:54.512Z,7.70
2022-12-22T16:08:27.906Z,7.70
2022-12-22T16:10:57.420Z,7.70
2022-12-22T16:13:28.547Z,7.60
2022-12-22T16:15:57.685Z,7.60
2022-12-22T16:18:25.748Z,7.60
2022-12-22T16:20:54.143Z,7.60
2022-12-22T16:23:25.561Z,7.60
2022-12-22T16:26:00.900Z,7.50
2022-12-22T16:28:33.496Z,7.50
2022-12-22T16:31:02.268Z,7.50
2022-12-22T16:33:30.395Z,7.50
2022-12-22T16:35:58.266Z,7.50
2022-12-22T16:38:26.334Z,7.40
2022-12-22T16:40:55.030Z,7.50
2022-12-22T16:46:17.487Z,7.40
2022-12-22T16:48:47.484Z,7.40
2022-12-22T16:51:23.011Z,7.40
2022-12-22T16:53:50.978Z,7.30
2022-12-22T16:56:22.597Z,7.40
2022-12-22T16:58:50.824Z,7.30
2022-12-22T17:01:27.673Z,7.30
2022-12-22T17:03:56.870Z,7.30
2022-12-22T17:06:24.895Z,7.30
2022-12-22T17:08:52.994Z,7.30
2022-12-22T17:11:24.588Z,7.30
2022-12-22T17:13:57.384Z,7.20
2022-12-22T17:16:26.971Z,7.20
2022-12-22T17:18:54.921Z,7.20
2022-12-22T17:21:22.979Z,7.20
2022-12-22T17:23:53.022Z,7.20
2022-12-22T17:26:23.787Z,7.20
2022-12-22T17:28:52.250Z,7.20
2022-12-22T17:31:22.197Z,7.20
2022-12-22T17:33:53.912Z,7.10
2022-12-22T17:36:31.412Z,7.10
2022-12-22T17:38:59.911Z,7.10
2022-12-22T17:41:27.912Z,7.10
2022-12-22T17:43:55.951Z,7.10
2022-12-22T17:46:24.062Z,7.10
2022-12-22T17:48:53.339Z,7.10
2022-12-22T17:51:24.518Z,7.00
2022-12-22T17:53:52.947Z,7.00
2022-12-22T17:56:23.410Z,7.00
2022-12-22T17:58:51.924Z,7.00
2022-12-22T18:01:25.558Z,7.00
2022-12-22T18:03:55.526Z,7.00
2022-12-22T18:06:26.386Z,7.00
2022-12-22T18:08:56.033Z,7.00
2022-12-22T18:11:24.808Z,7.00
2022-12-22T18:13:53.761Z,6.90
2022-12-22T18:16:23.035Z,6.90
2022-12-22T18:18:51.064Z,6.90
2022-12-22T18:21:22.075Z,6.90
2022-12-22T18:23:51.551Z,6.90
2022-12-22T18:26:24.534Z,6.90
2022-12-22T18:28:53.273Z,6.90
2022-12-22T18:31:22.265Z,6.90
2022-12-22T18:33:50.491Z,6.90
2022-12-22T18:36:22.687Z,6.90
2022-12-22T18:38:51.320Z,6.90
2022-12-22T18:41:22.252Z,6.80
2022-12-22T18:43:50.700Z,6.80
2022-12-22T18:46:19.231Z,6.80
2022-12-22T18:48:47.463Z,6.80
2022-12-22T18:51:21.608Z,6.80
2022-12-22T18:53:51.279Z,6.80
2022-12-22T18:56:19.421Z,6.80
2022-12-22T18:58:47.724Z,6.80
2022-12-22T19:01:21.685Z,6.80
2022-12-22T19:03:50.113Z,6.80
2022-12-22T19:06:22.360Z,6.80
2022-12-22T19:08:50.776Z,6.70
2022-12-22T19:11:22.433Z,6.70
2022-12-22T19:13:52.808Z,6.70
2022-12-22T19:16:25.637Z,6.70
2022-12-22T19:18:53.596Z,6.70
2022-12-22T19:21:23.105Z,6.70
2022-12-22T19:23:51.116Z,6.70
2022-12-22T19:26:22.845Z,6.70
2022-12-22T19:28:53.785Z,6.70
2022-12-22T19:31:25.312Z,6.70
2022-12-22T19:33:54.056Z,6.60
2022-12-22T19:36:26.345Z,6.70
2022-12-22T19:39:03.179Z,6.60
2022-12-22T19:41:41.914Z,6.70
2022-12-22T19:44:21.774Z,6.60
2022-12-22T19:46:50.073Z,6.60
2022-12-22T19:49:19.367Z,6.60
2022-12-22T19:51:49.057Z,6.60
2022-12-22T19:54:17.126Z,6.60
2022-12-22T19:56:48.605Z,6.60
2022-12-22T19:59:28.119Z,6.60
2022-12-22T20:01:59.287Z,6.60
2022-12-22T20:04:27.572Z,6.60
2022-12-22T20:06:56.972Z,6.60
2022-12-22T20:09:24.856Z,6.60
2022-12-22T20:11:53.458Z,6.60
2022-12-22T20:14:21.475Z,6.60
2022-12-22T20:16:49.456Z,6.60
2022-12-22T20:19:17.831Z,6.60
2022-12-22T20:21:45.919Z,6.60
2022-12-22T20:24:21.886Z,6.60
2022-12-22T20:26:54.188Z,6.60
2022-12-22T20:29:23.841Z,6.60
2022-12-22T20:31:51.886Z,6.60
2022-12-22T20:34:20.002Z,6.60
2022-12-22T20:36:47.928Z,6.50
2022-12-22T20:39:20.236Z,6.50
2022-12-22T20:41:52.939Z,6.60
2022-12-22T20:44:22.818Z,6.50
2022-12-22T20:46:50.856Z,6.50
2022-12-22T20:49:18.826Z,6.50
2022-12-22T20:51:46.963Z,6.50
2022-12-22T20:54:15.507Z,6.50
2022-12-22T20:56:45.924Z,6.60
2022-12-22T20:59:16.664Z,6.50
2022-12-22T21:01:44.750Z,6.50
2022-12-22T21:04:14.168Z,6.50
2022-12-22T21:06:46.403Z,6.50
2022-12-22T21:09:15.898Z,6.50
2022-12-22T21:11:45.320Z,6.50
2022-12-22T21:14:13.825Z,6.50
2022-12-22T21:16:42.907Z,6.50
2022-12-22T21:19:17.012Z,6.50
2022-12-22T21:21:44.979Z,6.50
2022-12-22T21:24:13.011Z,6.50
2022-12-22T21:26:45.464Z,6.50
2022-12-22T21:29:18.971Z,6.50
2022-12-22T21:31:47.057Z,6.50
2022-12-22T21:34:15.083Z,6.50
2022-12-22T21:36:45.016Z,6.50
2022-12-22T21:39:22.688Z,6.50
2022-12-22T21:42:04.439Z,6.50
2022-12-22T21:44:35.931Z,6.50
2022-12-22T21:47:04.365Z,6.50
2022-12-22T21:49:34.441Z,6.50
2022-12-22T21:52:02.518Z,6.50
2022-12-22T21:54:30.397Z,6.50
2022-12-22T21:56:58.632Z,6.50
2022-12-22T21:59:26.755Z,6.50
2022-12-22T22:01:56.962Z,6.50
2022-12-22T22:04:25.569Z,6.50
2022-12-22T22:06:53.745Z,6.50
2022-12-22T22:09:21.685Z,6.50
2022-12-22T22:12:07.230Z,6.50
2022-12-22T22:14:35.534Z,6.50
2022-12-22T22:17:04.859Z,6.50
2022-12-22T22:19:33.060Z,6.50
2022-12-22T22:22:01.063Z,6.50
2022-12-22T22:24:30.969Z,6.50
2022-12-22T22:26:59.820Z,6.50
2022-12-22T22:29:27.727Z,6.50
2022-12-22T22:31:55.636Z,6.50
2022-12-22T22:34:25.009Z,6.50
2022-12-22T22:36:53.434Z,6.50
2022-12-22T22:39:22.768Z,6.50
2022-12-22T22:41:51.002Z,6.50
2022-12-22T22:44:19.180Z,6.60
2022-12-22T22:46:47.187Z,6.50
2022-12-22T22:49:15.816Z,6.50
2022-12-22T22:51:45.185Z,6.50
2022-12-22T22:54:13.331Z,6.50
2022-12-22T22:56:41.432Z,6.50
2022-12-22T22:59:11.923Z,6.50
2022-12-22T23:01:41.529Z,6.50
2022-12-22T23:04:09.662Z,6.50
2022-12-22T23:06:37.635Z,6.50
2022-12-22T23:09:07.525Z,6.50
2022-12-22T23:11:35.436Z,6.60
2022-12-22T23:14:03.434Z,6.50
2022-12-22T23:16:37.770Z,6.50
2022-12-22T23:19:06.542Z,6.50
2022-12-22T23:21:34.821Z,6.50
2022-12-22T23:24:02.777Z,6.50
2022-12-22T23:26:32.014Z,6.50
2022-12-22T23:29:03.715Z,6.50
2022-12-22T23:31:32.359Z,6.50
2022-12-22T23:34:00.616Z,6.50
2022-12-22T23:36:28.850Z,6.50
2022-12-22T23:38:57.087Z,6.50
2022-12-22T23:41:25.030Z,6.60
2022-12-22T23:43:54.898Z,6.50
2022-12-22T23:46:23.157Z,6.50
2022-12-22T23:48:53.084Z,6.50
2022-12-22T23:51:21.701Z,6.50
2022-12-22T23:53:49.697Z,6.50
2022-12-22T23:56:17.939Z,6.50
2022-12-22T23:58:51.037Z,6.50
